メインページ
METAR-TAF:

METAR-TAF

空港 :

アルハンゲリスク, ロシア

緯度: 64-30N, 経度: 040-44E, 海抜: 13m

現時点の気象観測

当レポートは17分前の06:00(UTC)に作成
北/北東の風 6kt、から東/北東の間で変化する
気温 -2°C
湿度 80%
気圧 1004 hPa
視程10km以上
高度2400ftの千切れ雲あり

METAR: ULAA 200600Z 02003MPS 350V060 9999 BKN024 M02/M05 Q1004 R26/590336 NOSIG RMK QFE751/1002

時間: 09:17 (06:17 UTC)

予報

当レポートは1時間17分前の05:00(UTC)に作成
予報は20日の 06時(UTC)から 21日の 06時(UTC)まで有効
北/北西の風 10kt
視程: 4000m
高度600ftの千切れ雲あり
高度1200ftの千切れ雲あり, 積乱雲.
弱いにわか雪, 靄
20日の 06時(UTC)から 20日の 10時(UTC)まで一時的に
北/北東の風 12kt、最大25ktの突風を伴う
視程: 0700m
高度400ftの千切れ雲あり
高度1100ftの千切れ雲あり, 積乱雲.
激しいにわか雪, 着氷性の雨
20日の 1000時(UTC)から
の風 10kt
視程10km以上
高度1200ftの雲は散在している
高度1500ftの雲は散在している, 積乱雲.
20日の 10時(UTC)から 20日の 18時(UTC)まで一時的に
北西の風 10kt、最大25ktの突風を伴う
視程: 3100m
高度1100ftの千切れ雲あり, 積乱雲.
弱いにわか雪
20日の 18時(UTC)から 21日の 02時(UTC)まで一時的に
北西の風 6kt、最大16ktの突風を伴う
視程: 4000m
高度1100ftの雲は散在している
小雪, 靄
21日の 0200時(UTC)から
の風 6kt、最大16ktの突風を伴う
視程: 6000m
高度1500ftの千切れ雲あり

TAF: ULAA 200500Z 2006/2106 34005MPS 4000 -SHSN BR BKN006 BKN012CB TEMPO 2006/2010 02006G13MPS 0700 +SHSN FZRA BKN004 BKN011CB FM201000 36005MPS 9999 SCT012 SCT015CB TEMPO 2010/2018 32005G13MPS 3100 -SHSN BKN011CB TEMPO 2018/2102 32003G08MPS 4000 -SN BR SCT011 FM210200 18003G08MPS 6000 BKN015

4,000以上の空港の気象観測と天気予報(METAR報とTAF報)

利用可能な観測所は地図上に黄色い丸と赤い丸で示す。

丸の上にカーソルを重ねると観測所名を参照できる。

次にクリックすると気象観測と天気予報を参照できる。

マップの切り替え:黒色「×」印の緑ボタンをクリックして拡大、「-」印の緑ボタンをクリックして縮小、緑色の三角印をクリックして隣りの地図に切り替え


METAR-TAF: